sensor_id;sensor_type;location;lat;lon;timestamp;pressure;altitude;pressure_sealevel;temperature;humidity
23261;BME280;11799;47.740;-3.390;2023-07-28T00:01:30;100898.75;;;17.54;100.00
23261;BME280;11799;47.740;-3.390;2023-07-28T00:03:56;100887.03;;;17.47;100.00
23261;BME280;11799;47.740;-3.390;2023-07-28T00:06:23;100901.25;;;17.56;100.00
23261;BME280;11799;47.740;-3.390;2023-07-28T00:08:49;100901.09;;;17.57;100.00
23261;BME280;11799;47.740;-3.390;2023-07-28T00:11:15;100900.25;;;17.57;100.00
23261;BME280;11799;47.740;-3.390;2023-07-28T00:13:42;100905.59;;;17.57;100.00
23261;BME280;11799;47.740;-3.390;2023-07-28T00:16:08;100900.25;;;17.57;100.00
23261;BME280;11799;47.740;-3.390;2023-07-28T00:18:34;100900.09;;;17.58;100.00
23261;BME280;11799;47.740;-3.390;2023-07-28T00:21:00;100895.06;;;17.55;100.00
23261;BME280;11799;47.740;-3.390;2023-07-28T00:23:25;100896.91;;;17.55;100.00
23261;BME280;11799;47.740;-3.390;2023-07-28T00:25:51;100906.75;;;17.54;100.00
23261;BME280;11799;47.740;-3.390;2023-07-28T00:28:17;100896.22;;;17.53;100.00
23261;BME280;11799;47.740;-3.390;2023-07-28T00:30:42;100896.22;;;17.53;100.00
23261;BME280;11799;47.740;-3.390;2023-07-28T00:33:08;100890.72;;;17.54;100.00
23261;BME280;11799;47.740;-3.390;2023-07-28T00:35:33;100899.91;;;17.52;100.00
23261;BME280;11799;47.740;-3.390;2023-07-28T00:37:59;100896.38;;;17.51;100.00
23261;BME280;11799;47.740;-3.390;2023-07-28T00:40:25;100899.06;;;17.51;100.00
23261;BME280;11799;47.740;-3.390;2023-07-28T00:42:50;100900.56;;;17.54;100.00
23261;BME280;11799;47.740;-3.390;2023-07-28T00:45:16;100895.41;;;17.52;100.00
23261;BME280;11799;47.740;-3.390;2023-07-28T00:47:42;100890.91;;;17.53;100.00
23261;BME280;11799;47.740;-3.390;2023-07-28T00:50:08;100888.06;;;17.54;100.00
23261;BME280;11799;47.740;-3.390;2023-07-28T00:52:35;100886.06;;;17.56;100.00
23261;BME280;11799;47.740;-3.390;2023-07-28T00:55:01;100879.06;;;17.55;100.00
23261;BME280;11799;47.740;-3.390;2023-07-28T00:57:27;100883.72;;;17.53;100.00
23261;BME280;11799;47.740;-3.390;2023-07-28T00:59:53;100891.56;;;17.55;100.00
23261;BME280;11799;47.740;-3.390;2023-07-28T01:02:19;100891.72;;;17.53;100.00
23261;BME280;11799;47.740;-3.390;2023-07-28T01:04:46;100901.25;;;17.56;100.00
23261;BME280;11799;47.740;-3.390;2023-07-28T01:07:23;100896.75;;;17.56;100.00
23261;BME280;11799;47.740;-3.390;2023-07-28T01:12:20;100895.75;;;17.57;100.00
23261;BME280;11799;47.740;-3.390;2023-07-28T01:14:46;100895.06;;;17.55;100.00
23261;BME280;11799;47.740;-3.390;2023-07-28T01:17:11;100896.91;;;17.55;100.00
23261;BME280;11799;47.740;-3.390;2023-07-28T01:19:38;100896.91;;;17.55;100.00
23261;BME280;11799;47.740;-3.390;2023-07-28T01:25:18;100898.56;;;17.47;100.00
23261;BME280;11799;47.740;-3.390;2023-07-28T01:27:45;100892.03;;;17.42;100.00
23261;BME280;11799;47.740;-3.390;2023-07-28T01:30:11;100896.88;;;17.46;100.00
23261;BME280;11799;47.740;-3.390;2023-07-28T01:32:37;100895.03;;;17.47;100.00
23261;BME280;11799;47.740;-3.390;2023-07-28T01:35:03;100893.22;;;17.47;100.00
23261;BME280;11799;47.740;-3.390;2023-07-28T01:37:29;100879.50;;;17.42;100.00
23261;BME280;11799;47.740;-3.390;2023-07-28T01:39:55;100872.34;;;17.43;100.00
23261;BME280;11799;47.740;-3.390;2023-07-28T01:42:23;100891.22;;;17.49;100.00
23261;BME280;11799;47.740;-3.390;2023-07-28T01:44:49;100886.56;;;17.52;100.00
23261;BME280;11799;47.740;-3.390;2023-07-28T01:47:15;100876.69;;;17.44;100.00
23261;BME280;11799;47.740;-3.390;2023-07-28T01:49:40;100879.69;;;17.49;100.00
23261;BME280;11799;47.740;-3.390;2023-07-28T01:52:06;100876.88;;;17.50;100.00
23261;BME280;11799;47.740;-3.390;2023-07-28T01:54:31;100873.19;;;17.52;100.00
23261;BME280;11799;47.740;-3.390;2023-07-28T01:56:57;100868.69;;;17.52;100.00
23261;BME280;11799;47.740;-3.390;2023-07-28T01:59:22;100874.88;;;17.53;100.00
23261;BME280;11799;47.740;-3.390;2023-07-28T02:01:48;100879.38;;;17.52;100.00
23261;BME280;11799;47.740;-3.390;2023-07-28T02:04:14;100878.53;;;17.52;100.00
23261;BME280;11799;47.740;-3.390;2023-07-28T02:06:41;100879.38;;;17.52;100.00
23261;BME280;11799;47.740;-3.390;2023-07-28T02:09:06;100882.22;;;17.50;100.00
23261;BME280;11799;47.740;-3.390;2023-07-28T02:11:32;100882.84;;;17.44;100.00
23261;BME280;11799;47.740;-3.390;2023-07-28T02:13:57;100877.34;;;17.46;100.00
23261;BME280;11799;47.740;-3.390;2023-07-28T02:16:24;100874.53;;;17.47;100.00
23261;BME280;11799;47.740;-3.390;2023-07-28T02:18:49;100880.19;;;17.44;100.00
23261;BME280;11799;47.740;-3.390;2023-07-28T02:21:15;100883.00;;;17.43;100.00
23261;BME280;11799;47.740;-3.390;2023-07-28T02:23:41;100878.34;;;17.45;100.00
23261;BME280;11799;47.740;-3.390;2023-07-28T02:26:06;100878.88;;;17.48;100.00
23261;BME280;11799;47.740;-3.390;2023-07-28T02:28:32;100876.34;;;17.47;100.00
23261;BME280;11799;47.740;-3.390;2023-07-28T02:30:57;100864.66;;;17.40;100.00
23261;BME280;11799;47.740;-3.390;2023-07-28T02:33:23;100875.84;;;17.43;100.00
23261;BME280;11799;47.740;-3.390;2023-07-28T02:35:48;100874.00;;;17.44;100.00
23261;BME280;11799;47.740;-3.390;2023-07-28T02:38:14;100871.66;;;17.41;100.00
23261;BME280;11799;47.740;-3.390;2023-07-28T02:40:40;100873.19;;;17.43;100.00
23261;BME280;11799;47.740;-3.390;2023-07-28T02:43:05;100869.66;;;17.43;100.00
23261;BME280;11799;47.740;-3.390;2023-07-28T02:45:31;100872.34;;;17.43;100.00
23261;BME280;11799;47.740;-3.390;2023-07-28T02:47:56;100866.47;;;17.39;100.00
23261;BME280;11799;47.740;-3.390;2023-07-28T02:50:22;100874.66;;;17.38;100.00
23261;BME280;11799;47.740;-3.390;2023-07-28T02:52:48;100871.97;;;17.38;100.00
23261;BME280;11799;47.740;-3.390;2023-07-28T02:55:14;100867.81;;;17.35;100.00
23261;BME280;11799;47.740;-3.390;2023-07-28T02:57:40;100872.16;;;17.36;100.00
23261;BME280;11799;47.740;-3.390;2023-07-28T03:00:06;100867.13;;;17.33;100.00
23261;BME280;11799;47.740;-3.390;2023-07-28T03:02:36;100859.97;;;17.34;100.00
23261;BME280;11799;47.740;-3.390;2023-07-28T03:05:02;100861.63;;;17.35;100.00
23261;BME280;11799;47.740;-3.390;2023-07-28T03:07:47;100860.16;;;17.32;100.00
23261;BME280;11799;47.740;-3.390;2023-07-28T03:10:14;100855.81;;;17.31;100.00
23261;BME280;11799;47.740;-3.390;2023-07-28T03:12:42;100850.78;;;17.28;100.00
23261;BME280;11799;47.740;-3.390;2023-07-28T03:15:09;100849.63;;;17.31;100.00
23261;BME280;11799;47.740;-3.390;2023-07-28T03:17:34;100854.81;;;17.32;100.00
23261;BME280;11799;47.740;-3.390;2023-07-28T03:20:00;100854.31;;;17.29;100.00
23261;BME280;11799;47.740;-3.390;2023-07-28T03:22:27;100847.13;;;17.29;100.00
23261;BME280;11799;47.740;-3.390;2023-07-28T03:24:52;100846.63;;;17.26;100.00
23261;BME280;11799;47.740;-3.390;2023-07-28T03:27:18;100845.94;;;17.24;100.00
23261;BME280;11799;47.740;-3.390;2023-07-28T03:29:43;100843.13;;;17.25;100.00
23261;BME280;11799;47.740;-3.390;2023-07-28T03:32:09;100844.09;;;17.24;100.00
23261;BME280;11799;47.740;-3.390;2023-07-28T03:34:35;100845.94;;;17.24;100.00
23261;BME280;11799;47.740;-3.390;2023-07-28T03:37:02;100844.28;;;17.23;100.00
23261;BME280;11799;47.740;-3.390;2023-07-28T03:39:28;100842.59;;;17.22;100.00
23261;BME280;11799;47.740;-3.390;2023-07-28T03:41:55;100842.41;;;17.15;100.00
23261;BME280;11799;47.740;-3.390;2023-07-28T03:44:20;100847.41;;;17.18;100.00
23261;BME280;11799;47.740;-3.390;2023-07-28T03:46:46;100851.25;;;17.15;100.00
23261;BME280;11799;47.740;-3.390;2023-07-28T03:49:12;100845.22;;;17.13;100.00
23261;BME280;11799;47.740;-3.390;2023-07-28T03:51:37;100841.22;;;17.09;100.00
23261;BME280;11799;47.740;-3.390;2023-07-28T03:54:03;100847.38;;;17.10;100.00
23261;BME280;11799;47.740;-3.390;2023-07-28T03:56:28;100846.72;;;17.08;100.00
23261;BME280;11799;47.740;-3.390;2023-07-28T03:58:55;100847.56;;;17.08;100.00
23261;BME280;11799;47.740;-3.390;2023-07-28T04:01:20;100841.53;;;17.06;100.00
23261;BME280;11799;47.740;-3.390;2023-07-28T04:03:47;100836.53;;;17.03;100.00
23261;BME280;11799;47.740;-3.390;2023-07-28T04:06:13;100826.84;;;17.02;100.00
23261;BME280;11799;47.740;-3.390;2023-07-28T04:08:39;100826.00;;;17.02;100.00
23261;BME280;11799;47.740;-3.390;2023-07-28T04:11:05;100826.00;;;17.02;100.00
23261;BME280;11799;47.740;-3.390;2023-07-28T04:13:31;100831.34;;;17.02;100.00
23261;BME280;11799;47.740;-3.390;2023-07-28T04:15:56;100831.34;;;17.02;100.00
23261;BME280;11799;47.740;-3.390;2023-07-28T04:18:22;100828.69;;;17.02;100.00
23261;BME280;11799;47.740;-3.390;2023-07-28T04:20:48;100820.84;;;17.00;100.00
23261;BME280;11799;47.740;-3.390;2023-07-28T04:23:14;100826.16;;;17.00;100.00
23261;BME280;11799;47.740;-3.390;2023-07-28T04:25:40;100827.00;;;17.01;100.00
23261;BME280;11799;47.740;-3.390;2023-07-28T04:28:05;100828.00;;;17.00;100.00
23261;BME280;11799;47.740;-3.390;2023-07-28T04:30:31;100829.50;;;17.02;100.00
23261;BME280;11799;47.740;-3.390;2023-07-28T04:32:56;100833.19;;;17.01;100.00
23261;BME280;11799;47.740;-3.390;2023-07-28T04:35:31;100837.16;;;16.97;100.00
23261;BME280;11799;47.740;-3.390;2023-07-28T04:38:03;100833.50;;;16.98;100.00
23261;BME280;11799;47.740;-3.390;2023-07-28T04:40:41;100850.50;;;16.97;100.00
23261;BME280;11799;47.740;-3.390;2023-07-28T04:43:07;100839.50;;;17.00;100.00
23261;BME280;11799;47.740;-3.390;2023-07-28T04:45:33;100838.34;;;17.03;100.00
23261;BME280;11799;47.740;-3.390;2023-07-28T04:48:03;100833.19;;;17.01;100.00
23261;BME280;11799;47.740;-3.390;2023-07-28T04:50:28;100838.50;;;17.01;100.00
23261;BME280;11799;47.740;-3.390;2023-07-28T04:53:13;100836.00;;;17.00;100.00
23261;BME280;11799;47.740;-3.390;2023-07-28T04:55:54;100844.16;;;16.98;100.00
23261;BME280;11799;47.740;-3.390;2023-07-28T04:58:19;100851.19;;;16.99;100.00
23261;BME280;11799;47.740;-3.390;2023-07-28T05:00:49;100841.50;;;16.98;100.00
23261;BME280;11799;47.740;-3.390;2023-07-28T05:03:15;100845.00;;;16.99;100.00
23261;BME280;11799;47.740;-3.390;2023-07-28T05:05:48;100846.00;;;16.98;100.00
23261;BME280;11799;47.740;-3.390;2023-07-28T05:08:13;100841.50;;;16.98;100.00
23261;BME280;11799;47.740;-3.390;2023-07-28T05:10:41;100852.84;;;17.00;100.00
23261;BME280;11799;47.740;-3.390;2023-07-28T05:13:08;100846.16;;;16.96;100.00
23261;BME280;11799;47.740;-3.390;2023-07-28T05:15:34;100848.66;;;16.98;100.00
23261;BME280;11799;47.740;-3.390;2023-07-28T05:18:00;100853.00;;;16.99;100.00
23261;BME280;11799;47.740;-3.390;2023-07-28T05:20:37;100857.19;;;17.01;100.00
23261;BME280;11799;47.740;-3.390;2023-07-28T05:23:14;100859.66;;;16.95;100.00
23261;BME280;11799;47.740;-3.390;2023-07-28T05:25:40;100858.34;;;16.99;100.00
23261;BME280;11799;47.740;-3.390;2023-07-28T05:28:06;100850.03;;;17.02;100.00
23261;BME280;11799;47.740;-3.390;2023-07-28T05:30:34;100859.19;;;16.99;100.00
23261;BME280;11799;47.740;-3.390;2023-07-28T05:33:00;100859.69;;;17.03;100.00
23261;BME280;11799;47.740;-3.390;2023-07-28T05:35:43;100864.19;;;17.02;100.00
23261;BME280;11799;47.740;-3.390;2023-07-28T05:38:08;100861.38;;;17.04;100.00
23261;BME280;11799;47.740;-3.390;2023-07-28T05:40:34;100857.72;;;17.05;100.00
23261;BME280;11799;47.740;-3.390;2023-07-28T05:43:00;100864.56;;;17.07;100.00
23261;BME280;11799;47.740;-3.390;2023-07-28T05:45:25;100868.22;;;17.06;100.00
23261;BME280;11799;47.740;-3.390;2023-07-28T05:47:51;100862.03;;;17.06;100.00
23261;BME280;11799;47.740;-3.390;2023-07-28T05:50:17;100873.38;;;17.08;100.00
23261;BME280;11799;47.740;-3.390;2023-07-28T05:52:43;100871.41;;;17.10;100.00
23261;BME280;11799;47.740;-3.390;2023-07-28T05:55:08;100864.56;;;17.07;100.00
23261;BME280;11799;47.740;-3.390;2023-07-28T05:57:34;100875.06;;;17.09;100.00
23261;BME280;11799;47.740;-3.390;2023-07-28T06:00:03;100875.75;;;17.11;100.00
23261;BME280;11799;47.740;-3.390;2023-07-28T06:02:39;100879.59;;;17.16;100.00
23261;BME280;11799;47.740;-3.390;2023-07-28T06:05:06;100881.28;;;17.17;100.00
23261;BME280;11799;47.740;-3.390;2023-07-28T06:07:31;100888.66;;;17.24;100.00
23261;BME280;11799;47.740;-3.390;2023-07-28T06:09:57;100888.13;;;17.20;100.00
23261;BME280;11799;47.740;-3.390;2023-07-28T06:12:22;100889.63;;;17.23;100.00
23261;BME280;11799;47.740;-3.390;2023-07-28T06:14:48;100901.81;;;17.25;100.00
23261;BME280;11799;47.740;-3.390;2023-07-28T06:17:13;100910.81;;;17.24;100.00
23261;BME280;11799;47.740;-3.390;2023-07-28T06:19:40;100918.16;;;17.22;100.00
23261;BME280;11799;47.740;-3.390;2023-07-28T06:22:05;100911.63;;;17.16;100.00
23261;BME280;11799;47.740;-3.390;2023-07-28T06:24:36;100915.81;;;17.19;100.00
23261;BME280;11799;47.740;-3.390;2023-07-28T06:27:02;100924.50;;;17.21;100.00
23261;BME280;11799;47.740;-3.390;2023-07-28T06:29:34;100929.50;;;17.24;100.00
23261;BME280;11799;47.740;-3.390;2023-07-28T06:31:59;100922.50;;;17.23;100.00
23261;BME280;11799;47.740;-3.390;2023-07-28T06:34:25;100922.50;;;17.23;100.00
23261;BME280;11799;47.740;-3.390;2023-07-28T06:36:50;100927.00;;;17.23;100.00
23261;BME280;11799;47.740;-3.390;2023-07-28T06:39:16;100933.03;;;17.25;100.00
23261;BME280;11799;47.740;-3.390;2023-07-28T06:41:41;100940.19;;;17.24;100.00
23261;BME280;11799;47.740;-3.390;2023-07-28T06:44:07;100940.72;;;17.28;100.00
23261;BME280;11799;47.740;-3.390;2023-07-28T06:46:34;100913.78;;;17.13;100.00
23261;BME280;11799;47.740;-3.390;2023-07-28T06:48:59;100932.03;;;17.26;100.00
23261;BME280;11799;47.740;-3.390;2023-07-28T06:51:25;100935.88;;;17.31;100.00
23261;BME280;11799;47.740;-3.390;2023-07-28T06:53:51;100931.19;;;17.33;100.00
23261;BME280;11799;47.740;-3.390;2023-07-28T06:56:17;100938.19;;;17.34;100.00
23261;BME280;11799;47.740;-3.390;2023-07-28T06:58:42;100947.22;;;17.33;100.00
23261;BME280;11799;47.740;-3.390;2023-07-28T07:01:08;100947.72;;;17.29;100.00
23261;BME280;11799;47.740;-3.390;2023-07-28T07:03:37;100961.22;;;17.35;100.00
23261;BME280;11799;47.740;-3.390;2023-07-28T07:06:03;100948.56;;;17.37;100.00
23261;BME280;11799;47.740;-3.390;2023-07-28T07:08:28;100956.88;;;17.34;100.00
23261;BME280;11799;47.740;-3.390;2023-07-28T07:10:54;100949.06;;;17.33;100.00
23261;BME280;11799;47.740;-3.390;2023-07-28T07:13:20;100963.06;;;17.35;100.00
23261;BME280;11799;47.740;-3.390;2023-07-28T07:15:45;100957.88;;;17.33;100.00
23261;BME280;11799;47.740;-3.390;2023-07-28T07:18:11;100956.06;;;17.34;100.00
23261;BME280;11799;47.740;-3.390;2023-07-28T07:20:37;100964.06;;;17.34;100.00
23261;BME280;11799;47.740;-3.390;2023-07-28T07:23:06;100954.22;;;17.34;100.00
23261;BME280;11799;47.740;-3.390;2023-07-28T07:25:32;100958.22;;;17.30;100.00
23261;BME280;11799;47.740;-3.390;2023-07-28T07:28:01;100959.91;;;17.31;100.00
23261;BME280;11799;47.740;-3.390;2023-07-28T07:30:27;100961.75;;;17.39;100.00
23261;BME280;11799;47.740;-3.390;2023-07-28T07:32:52;100968.44;;;17.43;100.00
23261;BME280;11799;47.740;-3.390;2023-07-28T07:35:18;100954.94;;;17.44;100.00
23261;BME280;11799;47.740;-3.390;2023-07-28T07:37:44;100958.47;;;17.53;100.00
23261;BME280;11799;47.740;-3.390;2023-07-28T07:40:10;100957.69;;;17.61;100.00
23261;BME280;11799;47.740;-3.390;2023-07-28T07:42:42;100964.38;;;17.65;100.00
23261;BME280;11799;47.740;-3.390;2023-07-28T07:45:09;100959.91;;;17.65;100.00
23261;BME280;11799;47.740;-3.390;2023-07-28T07:47:35;100958.34;;;17.63;100.00
23261;BME280;11799;47.740;-3.390;2023-07-28T07:50:01;100960.56;;;17.67;100.00
23261;BME280;11799;47.740;-3.390;2023-07-28T07:52:26;100960.84;;;17.64;100.00
23261;BME280;11799;47.740;-3.390;2023-07-28T07:54:52;100963.25;;;17.67;100.00
23261;BME280;11799;47.740;-3.390;2023-07-28T07:57:17;100969.09;;;17.71;100.00
23261;BME280;11799;47.740;-3.390;2023-07-28T07:59:43;100957.09;;;17.75;100.00
23261;BME280;11799;47.740;-3.390;2023-07-28T08:02:08;100968.28;;;17.78;100.00
23261;BME280;11799;47.740;-3.390;2023-07-28T08:04:35;100956.78;;;17.78;100.00
23261;BME280;11799;47.740;-3.390;2023-07-28T08:07:01;100957.13;;;17.83;100.00
23261;BME280;11799;47.740;-3.390;2023-07-28T08:09:29;100961.31;;;17.86;100.00
23261;BME280;11799;47.740;-3.390;2023-07-28T08:11:55;100960.63;;;17.92;100.00
23261;BME280;11799;47.740;-3.390;2023-07-28T08:14:21;100959.81;;;17.99;100.00
23261;BME280;11799;47.740;-3.390;2023-07-28T08:16:46;100948.78;;;18.02;100.00
23261;BME280;11799;47.740;-3.390;2023-07-28T08:19:12;100957.34;;;18.14;100.00
23261;BME280;11799;47.740;-3.390;2023-07-28T08:21:37;100962.84;;;18.21;100.00
23261;BME280;11799;47.740;-3.390;2023-07-28T08:24:04;100959.84;;;18.24;100.00
23261;BME280;11799;47.740;-3.390;2023-07-28T08:26:30;100965.69;;;18.19;100.00
23261;BME280;11799;47.740;-3.390;2023-07-28T08:28:55;100966.53;;;18.20;100.00
23261;BME280;11799;47.740;-3.390;2023-07-28T08:31:21;100974.22;;;18.23;100.00
23261;BME280;11799;47.740;-3.390;2023-07-28T08:33:47;100971.03;;;18.19;100.00
23261;BME280;11799;47.740;-3.390;2023-07-28T08:36:12;100974.88;;;18.17;100.00
23261;BME280;11799;47.740;-3.390;2023-07-28T08:38:38;100970.03;;;18.12;100.00
23261;BME280;11799;47.740;-3.390;2023-07-28T08:41:04;100976.19;;;18.12;100.00
23261;BME280;11799;47.740;-3.390;2023-07-28T08:43:31;100984.72;;;18.08;100.00
23261;BME280;11799;47.740;-3.390;2023-07-28T08:45:57;100975.38;;;18.12;100.00
23261;BME280;11799;47.740;-3.390;2023-07-28T08:48:23;100977.53;;;18.17;100.00
23261;BME280;11799;47.740;-3.390;2023-07-28T08:50:49;100974.72;;;18.18;100.00
23261;BME280;11799;47.740;-3.390;2023-07-28T08:53:15;100981.72;;;18.19;100.00
23261;BME280;11799;47.740;-3.390;2023-07-28T08:55:41;100978.91;;;18.21;100.00
23261;BME280;11799;47.740;-3.390;2023-07-28T08:58:21;100983.06;;;18.23;100.00
23261;BME280;11799;47.740;-3.390;2023-07-28T09:00:48;100985.41;;;18.26;100.00
23261;BME280;11799;47.740;-3.390;2023-07-28T09:03:15;100983.75;;;18.33;100.00
23261;BME280;11799;47.740;-3.390;2023-07-28T09:05:45;100983.94;;;18.40;100.00
23261;BME280;11799;47.740;-3.390;2023-07-28T09:08:14;100986.78;;;18.46;100.00
23261;BME280;11799;47.740;-3.390;2023-07-28T09:10:47;100984.41;;;18.52;100.00
23261;BME280;11799;47.740;-3.390;2023-07-28T09:13:18;100993.63;;;18.57;100.00
23261;BME280;11799;47.740;-3.390;2023-07-28T09:15:45;100986.97;;;18.61;100.00
23261;BME280;11799;47.740;-3.390;2023-07-28T09:18:14;100987.25;;;18.58;100.00
23261;BME280;11799;47.740;-3.390;2023-07-28T09:20:41;100994.28;;;18.59;100.00
23261;BME280;11799;47.740;-3.390;2023-07-28T09:23:10;100989.97;;;18.66;100.00
23261;BME280;11799;47.740;-3.390;2023-07-28T09:25:37;100989.97;;;18.74;100.00
23261;BME280;11799;47.740;-3.390;2023-07-28T09:28:03;101000.00;;;18.80;100.00
23261;BME280;11799;47.740;-3.390;2023-07-28T09:30:49;101000.50;;;18.84;100.00
23261;BME280;11799;47.740;-3.390;2023-07-28T09:33:29;100999.31;;;18.87;100.00
23261;BME280;11799;47.740;-3.390;2023-07-28T09:35:55;100997.81;;;18.84;100.00
23261;BME280;11799;47.740;-3.390;2023-07-28T09:38:22;101002.16;;;18.85;100.00
23261;BME280;11799;47.740;-3.390;2023-07-28T09:40:48;101006.00;;;18.91;100.00
23261;BME280;11799;47.740;-3.390;2023-07-28T09:43:14;101001.81;;;18.96;100.00
23261;BME280;11799;47.740;-3.390;2023-07-28T09:45:40;101018.38;;;19.00;100.00
23261;BME280;11799;47.740;-3.390;2023-07-28T09:48:07;101014.88;;;18.91;100.00
23261;BME280;11799;47.740;-3.390;2023-07-28T09:50:36;101012.03;;;18.93;100.00
23261;BME280;11799;47.740;-3.390;2023-07-28T09:53:03;101009.69;;;18.98;100.00
23261;BME280;11799;47.740;-3.390;2023-07-28T09:55:29;101021.56;;;18.95;100.00
23261;BME280;11799;47.740;-3.390;2023-07-28T09:57:56;101017.72;;;18.98;100.00
23261;BME280;11799;47.740;-3.390;2023-07-28T10:00:23;101018.38;;;19.00;100.00
23261;BME280;11799;47.740;-3.390;2023-07-28T10:02:49;101019.38;;;18.99;100.00
23261;BME280;11799;47.740;-3.390;2023-07-28T10:05:16;101014.03;;;18.99;100.00
23261;BME280;11799;47.740;-3.390;2023-07-28T10:07:43;101018.03;;;19.03;100.00
23261;BME280;11799;47.740;-3.390;2023-07-28T10:10:11;101015.00;;;19.14;100.00
23261;BME280;11799;47.740;-3.390;2023-07-28T10:15:07;101016.88;;;18.97;100.00
23261;BME280;11799;47.740;-3.390;2023-07-28T10:17:36;101008.47;;;19.08;100.00
23261;BME280;11799;47.740;-3.390;2023-07-28T10:20:05;101004.44;;;19.12;100.00
23261;BME280;11799;47.740;-3.390;2023-07-28T10:22:46;100998.13;;;19.05;100.00
23261;BME280;11799;47.740;-3.390;2023-07-28T10:25:12;100999.44;;;19.18;100.00
23261;BME280;11799;47.740;-3.390;2023-07-28T10:27:44;101010.47;;;19.23;100.00
23261;BME280;11799;47.740;-3.390;2023-07-28T10:30:12;101003.09;;;19.25;100.00
23261;BME280;11799;47.740;-3.390;2023-07-28T10:32:40;101017.66;;;19.14;100.00
23261;BME280;11799;47.740;-3.390;2023-07-28T10:37:36;101014.16;;;19.22;100.00
23261;BME280;11799;47.740;-3.390;2023-07-28T10:40:29;101019.50;;;19.13;100.00
23261;BME280;11799;47.740;-3.390;2023-07-28T10:43:02;101023.19;;;19.21;100.00
23261;BME280;11799;47.740;-3.390;2023-07-28T10:45:30;101026.00;;;19.27;100.00
23261;BME280;11799;47.740;-3.390;2023-07-28T10:47:57;101024.84;;;19.30;100.00
23261;BME280;11799;47.740;-3.390;2023-07-28T10:50:30;101021.81;;;19.33;100.00
23261;BME280;11799;47.740;-3.390;2023-07-28T10:52:56;101032.03;;;19.37;100.00
23261;BME280;11799;47.740;-3.390;2023-07-28T10:55:24;101022.81;;;19.32;100.00
23261;BME280;11799;47.740;-3.390;2023-07-28T10:57:51;101018.81;;;19.28;100.00
23261;BME280;11799;47.740;-3.390;2023-07-28T11:00:20;101020.97;;;19.32;100.00
23261;BME280;11799;47.740;-3.390;2023-07-28T11:02:52;101025.84;;;19.21;100.00
23261;BME280;11799;47.740;-3.390;2023-07-28T11:05:29;101020.66;;;19.19;100.00
23261;BME280;11799;47.740;-3.390;2023-07-28T11:07:59;101022.66;;;19.25;100.00
23261;BME280;11799;47.740;-3.390;2023-07-28T11:10:28;101022.50;;;19.27;100.00
23261;BME280;11799;47.740;-3.390;2023-07-28T11:12:56;101014.63;;;19.25;100.00
23261;BME280;11799;47.740;-3.390;2023-07-28T11:15:23;101016.97;;;19.28;100.00
23261;BME280;11799;47.740;-3.390;2023-07-28T11:17:51;101001.75;;;19.29;100.00
23261;BME280;11799;47.740;-3.390;2023-07-28T11:20:18;101017.59;;;19.46;100.00
23261;BME280;11799;47.740;-3.390;2023-07-28T11:23:03;101014.28;;;19.53;100.00
23261;BME280;11799;47.740;-3.390;2023-07-28T11:25:30;101013.41;;;19.60;100.00
23261;BME280;11799;47.740;-3.390;2023-07-28T11:27:56;101013.59;;;19.59;100.00
23261;BME280;11799;47.740;-3.390;2023-07-28T11:30:23;101009.06;;;19.59;100.00
23261;BME280;11799;47.740;-3.390;2023-07-28T11:32:51;101016.91;;;19.61;100.00
23261;BME280;11799;47.740;-3.390;2023-07-28T11:35:19;101018.88;;;19.67;100.00
23261;BME280;11799;47.740;-3.390;2023-07-28T11:37:50;101016.91;;;19.61;100.00
23261;BME280;11799;47.740;-3.390;2023-07-28T11:40:17;101012.41;;;19.61;100.00
23261;BME280;11799;47.740;-3.390;2023-07-28T11:42:45;101019.44;;;19.62;100.00
23261;BME280;11799;47.740;-3.390;2023-07-28T11:45:12;101015.41;;;19.58;100.00
23261;BME280;11799;47.740;-3.390;2023-07-28T11:47:38;101020.44;;;19.61;100.00
23261;BME280;11799;47.740;-3.390;2023-07-28T11:50:04;101022.09;;;19.62;100.00
23261;BME280;11799;47.740;-3.390;2023-07-28T11:52:36;101024.06;;;19.68;100.00
23261;BME280;11799;47.740;-3.390;2023-07-28T11:55:04;101018.00;;;19.74;100.00
23261;BME280;11799;47.740;-3.390;2023-07-28T11:57:30;101006.50;;;19.66;100.00
23261;BME280;11799;47.740;-3.390;2023-07-28T11:59:59;101013.66;;;19.73;100.00
23261;BME280;11799;47.740;-3.390;2023-07-28T12:02:29;101003.78;;;19.74;100.00
23261;BME280;11799;47.740;-3.390;2023-07-28T12:04:55;101007.25;;;19.83;100.00
23261;BME280;11799;47.740;-3.390;2023-07-28T12:07:31;101008.75;;;19.85;100.00
23261;BME280;11799;47.740;-3.390;2023-07-28T12:09:57;101001.38;;;19.87;100.00
23261;BME280;11799;47.740;-3.390;2023-07-28T12:12:28;100995.22;;;19.78;100.00
23261;BME280;11799;47.740;-3.390;2023-07-28T12:14:55;101011.59;;;19.84;100.00
23261;BME280;11799;47.740;-3.390;2023-07-28T12:17:23;101016.59;;;19.95;100.00
23261;BME280;11799;47.740;-3.390;2023-07-28T12:22:26;101021.56;;;20.06;100.00
23261;BME280;11799;47.740;-3.390;2023-07-28T12:24:52;101008.06;;;19.91;100.00
23261;BME280;11799;47.740;-3.390;2023-07-28T12:27:18;101000.50;;;19.95;100.00
23261;BME280;11799;47.740;-3.390;2023-07-28T12:29:46;101003.84;;;19.97;100.00
23261;BME280;11799;47.740;-3.390;2023-07-28T12:32:11;101022.25;;;20.00;100.00
23261;BME280;11799;47.740;-3.390;2023-07-28T12:34:37;101019.19;;;20.11;100.00
23261;BME280;11799;47.740;-3.390;2023-07-28T12:37:03;101018.16;;;20.12;100.00
23261;BME280;11799;47.740;-3.390;2023-07-28T12:39:28;101016.97;;;20.15;100.00
23261;BME280;11799;47.740;-3.390;2023-07-28T12:41:54;101015.31;;;20.14;100.00
23261;BME280;11799;47.740;-3.390;2023-07-28T12:44:20;101014.97;;;20.17;100.00